• Join FlightAware (Why Join?)
  • Login
  • US Flag 
Rudolph Flight #1: Scheduled 
09:48PM EST


 

Airport Tracker/Info


-or-


 

Live Flight TrackerFlight Track Log ✈ LBQ850 ✈ 04-May-2012 ✈ KBFM - KLZU

Flight Track Log - Related Links

Times and Time Zones

All times are in EDT time to prevent confusion due to time zone crossing. See the LBQ850 flight status page for this flight to view local times or setup timezone preferences in your user account.

Time Position Orientation Groundspeed Altitude Reporting Facility
EDT Latitude Longitude Course Direction KTS MPH feet Rate Location/Type
10:25PM 30.7967 -87.9033 208° Southwest  Level FlightAware Approximate
10:26PM 30.7439 -87.9358 31° Northeast 171 197 6,800  Level Houston Center
10:30PM 30.9156 -87.8133 37° Northeast 183 211 7,000  Climbing Houston Center
10:31PM 30.9564 -87.7781 35° Northeast 178 205 7,000  Level Houston Center
10:32PM 30.9992 -87.7425 33° Northeast 178 205 7,000  Level Houston Center
10:33PM 31.0461 -87.7067 34° Northeast 188 216 7,000  Level Houston Center
10:34PM 31.0889 -87.6733 35° Northeast 188 216 7,000  Level Houston Center
10:35PM 31.1317 -87.6378 33° Northeast 188 216 7,000  Level Houston Center
10:36PM 31.1764 -87.6044 37° Northeast 193 222 7,000  Level Houston Center
10:37PM 31.2172 -87.5689 34° Northeast 193 222 7,000  Level Houston Center
10:39PM 31.3186 -87.4903 35° Northeast 188 216 7,000  Level Atlanta Center
10:40PM 31.3614 -87.4556 31° Northeast 193 222 7,000  Level Atlanta Center
10:41PM 31.4081 -87.4231 37° Northeast 193 222 7,000  Level Atlanta Center
10:42PM 31.4508 -87.3858 34° Northeast 193 222 7,000  Level Atlanta Center
10:43PM 31.4956 -87.3508 44° Northeast 193 222 7,000  Level Atlanta Center
10:44PM 31.5344 -87.3061 60° Northeast 193 222 7,000  Level Atlanta Center
10:45PM 31.5608 -87.2533 46° Northeast 186 214 7,000  Level Atlanta Center
10:46PM 31.5975 -87.2083 51° Northeast 186 214 7,000  Level Atlanta Center
10:47PM 31.6300 -87.1608 46° Northeast 186 214 7,000  Level Atlanta Center
10:48PM 31.6667 -87.1156 51° Northeast 181 208 7,000  Level Atlanta Center
10:49PM 31.7011 -87.0656 45° Northeast 187 215 7,000  Level Atlanta Center
10:50PM 31.7378 -87.0228 50° Northeast 187 215 7,000  Level Atlanta Center
10:51PM 31.7700 -86.9775 48° Northeast 187 215 7,000  Level Atlanta Center
10:52PM 31.8047 -86.9322 48° Northeast 188 216 7,000  Level Atlanta Center
10:53PM 31.8392 -86.8869 45° Northeast 188 216 7,000  Level Atlanta Center
10:54PM 31.8733 -86.8464 50° Northeast 188 216 7,000  Level Atlanta Center
10:55PM 31.9056 -86.8008 48° Northeast 183 211 7,000  Level Atlanta Center
10:56PM 31.9422 -86.7531 52° Northeast 188 216 7,000  Level Atlanta Center
10:57PM 31.9744 -86.7050 55° Northeast 183 211 7,000  Level Atlanta Center
10:58PM 32.0050 -86.6544 52° Northeast 189 217 7,000  Level Atlanta Center
10:59PM 32.0372 -86.6064 54° Northeast 189 217 7,000  Level Atlanta Center
11:08PM 32.3386 -86.1186 47° Northeast 198 228 7,000  Level Atlanta Center
11:13PM 32.5197 -85.8889 44° Northeast 182 209 7,000  Level Atlanta Center
11:14PM 32.5578 -85.8453 42° Northeast 187 215 7,000  Level Atlanta Center
11:15PM 32.5981 -85.8017 45° Northeast 193 222 7,000  Level Atlanta Center
11:16PM 32.6386 -85.7531 46° Northeast 193 222 7,000  Level Atlanta Center
11:17PM 32.6767 -85.7069 47° Northeast 200 230 7,000  Level Atlanta Center
11:18PM 32.7150 -85.6583 42° Northeast 195 224 7,000  Level Atlanta Center
11:19PM 32.7553 -85.6147 46° Northeast 195 224 7,000  Level Atlanta Center
11:20PM 32.7933 -85.5683 48° Northeast 200 230 7,000  Level Atlanta Center
11:21PM 32.8314 -85.5172 46° Northeast 195 224 7,000  Level Atlanta Center
11:22PM 32.8675 -85.4733 49° Northeast 195 224 7,000  Level Atlanta Center
11:23PM 32.9056 -85.4219 46° Northeast 195 224 7,000  Level Atlanta Center
11:24PM 32.9436 -85.3756 49° Northeast 190 219 7,000  Level Atlanta Center
11:25PM 32.9756 -85.3314 49° Northeast 190 219 7,000  Level Atlanta Center
11:26PM 33.0136 -85.2800 49° Northeast 195 224 7,000  Level Atlanta Center
11:27PM 33.0497 -85.2308 53° Northeast 195 224 7,000  Level Atlanta Center
11:28PM 33.0836 -85.1767 48° Northeast 195 224 7,000  Level Atlanta Center
11:29PM 33.1236 -85.1228 52° Northeast 195 224 7,000  Level Atlanta Center
11:30PM 33.1575 -85.0711 49° Northeast 195 224 7,000  Level Atlanta Center
11:31PM 33.1933 -85.0219 50° Northeast 201 231 7,000  Level Atlanta Center
11:32PM 33.2292 -84.9700 52° Northeast 196 226 7,000  Level Atlanta Center
11:33PM 33.2631 -84.9183 50° Northeast 196 226 7,000  Level Atlanta Center
11:34PM 33.2989 -84.8664 49° Northeast 204 235 7,000  Level Atlanta Center
11:35PM 33.3347 -84.8169 69° East 199 229 7,000  Level Atlanta Center
11:37PM 33.3833 -84.6667 90° East 202 232 7,000  Level Atlanta TRACON
11:38PM 33.3833 -84.6167 59° Northeast 201 231 7,000  Level Atlanta TRACON
11:39PM 33.4167 -84.5500 40° Northeast 200 230 7,000  Level Atlanta TRACON
11:41PM 33.5000 -84.4667 40° Northeast 202 232 7,000 -240 Level Atlanta TRACON
11:42PM 33.5333 -84.4333 40° Northeast 216 249 6,400 -840 Descending Atlanta TRACON
11:43PM 33.5833 -84.3833 40° Northeast 231 266 5,500 -900 Descending Atlanta TRACON
11:44PM 33.6167 -84.3500 40° Northeast 226 260 5,000 -300 Descending Atlanta TRACON
11:45PM 33.6667 -84.3000 40° Northeast 207 238 5,000  Level Atlanta TRACON
11:46PM 33.7167 -84.2500 40° Northeast 205 236 5,000  Level Atlanta TRACON
11:47PM 33.7500 -84.2167 40° Northeast 205 236 5,000  Level Atlanta TRACON
11:48PM 33.8000 -84.1667 40° Northeast 204 235 5,000  Level Atlanta TRACON